Active alerts


No alerts


weather webcam more information weather webcam


Thunder radar more information blitzortung!


Rain radar more information rain snow radar


Visit our other weather sites:

Template documentation
and downloads

And another site


Nearby METAR Reports

   
EBBR - Brussels International Airport, Belgium
Distance from station: W 9 mi
Updated: Dec 10 2018 1:20 am
Few Clouds  
Few Clouds  
   Wind: WSW 9.2 mph
Wind: WSW 9.2 mph
Temperature: 39.2°F
Wind Chill: 33.8°F
Dew Point: 35.6°F
Humidity: 87%
Barometer: 30.18 inHg
Clouds: Few Clouds
Visibility: More than 6 mi
Cloud details: Few Clouds 4200 ft
EBBR 100720Z 25008KT 9999 FEW042 04/02 Q1022 NOSIG
EBBE - Beauvechain (Bevekom), Belgium
Distance from station: SSE 10 mi
Updated: Dec 10 2018 12:55 am
Few Clouds  
Few Clouds  
   Wind: WSW 8.1 mph
Wind: WSW 8.1 mph
Temperature: 37.4°F
Wind Chill: 30.2°F
Dew Point: 33.8°F
Humidity: 87%
Barometer: 30.18 inHg
Clouds: Few Clouds
Visibility: More than 6 mi
Cloud details: Few Clouds 2200 ft
EBBE 100655Z 25007KT 9999 FEW022 03/01 Q1022 BLU BLU
EBDT - Schaffen, Belgium
Distance from station: ENE 18 mi
Updated: Dec 10 2018 12:55 am
Few Clouds  
Few Clouds  
   Wind: WSW 9.2 mph
Wind: WSW 9.2 mph
Temperature: 39.2°F
Wind Chill: 33.8°F
Dew Point: 35.6°F
Humidity: 87%
Barometer: 30.18 inHg
Clouds: Few Clouds
Visibility: More than 6 mi
Cloud details: Few Clouds 2000 ft
EBDT 100655Z 25008KT 9999 FEW020 04/02 Q1022 BLU BLU
EBAW - Antwerp/Deurne, Belgium
Distance from station: NNW 23 mi
Updated: Dec 10 2018 1:20 am
Few Clouds  
Few Clouds  
   Wind: West 8.1 mph
Wind: West 8.1 mph
Temperature: 41°F
Wind Chill: 35.6°F
Dew Point: 37.4°F
Humidity: 87%
Barometer: 30.18 inHg
Clouds: Few Clouds
Visibility: More than 6 mi
Cloud details: Few Clouds 2400 ft
EBAW 100720Z 27007KT 9999 FEW024 05/03 Q1022 NOSIG
EBCI - Charleroi/Gosselies, Belgium
Distance from station: SSW 32 mi
Updated: Dec 10 2018 1:20 am
Mostly Cloudy  
Mostly Cloudy  
   Wind: WSW 8.1 mph
Wind: WSW 8.1 mph
Temperature: 39.2°F
Wind Chill: 33.8°F
Dew Point: 37.4°F
Humidity: 93%
Barometer: 30.21 inHg
Clouds: Mostly Cloudy
Visibility: More than 6 mi
Cloud details: Mostly Cloudy 2700 ft
EBCI 100720Z 25007KT 9999 BKN027 04/03 Q1023 NOSIG
EBLG - Bierset/Liege, Belgium
Distance from station: ESE 38 mi
Updated: Dec 10 2018 1:20 am
Few Clouds  
Few Clouds  
   Wind: West 10.4 mph
Wind: West 10.4 mph
Temperature: 37.4°F
Wind Chill: 30.2°F
Dew Point: 35.6°F
Humidity: 93%
Barometer: 30.18 inHg
Clouds: Few Clouds
Visibility: More than 6 mi
Cloud details: Few Clouds 2000 ft
EBLG 100720Z 26009KT 9999 FEW020 03/02 Q1022 NOSIG

Script developed by  Saratoga-weather.org Adapted for the template by  Weerstation Leuven

You find our weather info also at:

Weather Underground

Midwestern Weather Network

Citizen Weather Observer Program (CWOP)

HAMweather, WeatherForYou, PWS Weather

Equipment we use:

Weather-station
Davis VP2

Weather-program
Cumulus

Davis VP2

Cumulus